createdAt,value
2019-03-31T00:00:14.010Z,18.12
2019-03-31T00:02:49.896Z,16.80
2019-03-31T00:05:25.480Z,16.40
2019-03-31T00:08:00.180Z,17.50
2019-03-31T00:10:34.597Z,16.82
2019-03-31T00:13:09.085Z,20.90
2019-03-31T00:15:43.727Z,16.35
2019-03-31T00:18:18.394Z,16.70
2019-03-31T00:20:53.913Z,17.32
2019-03-31T00:23:28.211Z,19.23
2019-03-31T00:26:02.623Z,16.87
2019-03-31T00:28:37.311Z,13.30
2019-03-31T00:31:21.973Z,16.65
2019-03-31T00:33:48.569Z,19.23
2019-03-31T00:36:23.366Z,19.15
2019-03-31T00:38:57.878Z,18.07
2019-03-31T00:41:32.406Z,18.15
2019-03-31T00:44:07.148Z,20.00
2019-03-31T00:46:41.965Z,19.95
2019-03-31T00:49:16.481Z,17.17
2019-03-31T00:51:50.890Z,20.35
2019-03-31T00:54:27.806Z,19.55
2019-03-31T00:57:01.964Z,21.70
2019-03-31T00:59:36.641Z,19.60
2019-03-31T01:02:15.953Z,20.45
2019-03-31T01:04:51.284Z,18.67
2019-03-31T01:07:28.026Z,23.32
2019-03-31T01:10:02.864Z,17.62
2019-03-31T01:12:39.118Z,18.45
2019-03-31T01:15:17.923Z,17.40
2019-03-31T01:17:52.603Z,19.23
2019-03-31T01:20:27.071Z,21.62
2019-03-31T01:23:01.610Z,17.65
2019-03-31T01:25:36.384Z,19.00
2019-03-31T01:28:11.209Z,21.75
2019-03-31T01:30:46.039Z,21.20
2019-03-31T01:33:21.382Z,17.80
2019-03-31T01:35:56.004Z,19.42
2019-03-31T01:38:30.700Z,20.00
2019-03-31T01:41:05.073Z,25.05
2019-03-31T01:43:39.636Z,20.17
2019-03-31T01:46:16.886Z,17.95
2019-03-31T01:48:51.596Z,19.07
2019-03-31T01:51:26.314Z,18.60
2019-03-31T01:54:01.156Z,19.90
2019-03-31T01:56:35.636Z,22.05
2019-03-31T01:59:10.467Z,21.85
2019-03-31T02:01:45.293Z,20.80
2019-03-31T02:04:20.214Z,22.67
2019-03-31T02:06:54.760Z,24.55
2019-03-31T02:09:29.725Z,25.32
2019-03-31T02:12:04.132Z,23.50
2019-03-31T02:14:38.874Z,24.25
2019-03-31T02:17:13.339Z,22.93
2019-03-31T02:19:48.055Z,26.42
2019-03-31T02:22:22.500Z,23.55
2019-03-31T02:24:57.536Z,23.57
2019-03-31T02:27:32.308Z,27.62
2019-03-31T02:30:07.303Z,27.87
2019-03-31T02:32:42.260Z,26.52
2019-03-31T02:35:17.316Z,26.45
2019-03-31T02:37:51.859Z,29.90
2019-03-31T02:40:26.680Z,30.25
2019-03-31T02:43:01.481Z,30.15
2019-03-31T02:45:36.015Z,32.28
2019-03-31T02:48:10.382Z,37.50
2019-03-31T02:50:51.733Z,33.00
2019-03-31T02:53:26.408Z,34.47
2019-03-31T02:56:02.084Z,39.95
2019-03-31T02:58:37.304Z,32.90
2019-03-31T03:01:14.006Z,34.13
2019-03-31T03:03:50.808Z,34.80
2019-03-31T03:06:27.164Z,35.23
2019-03-31T03:09:05.744Z,37.38
2019-03-31T03:11:40.537Z,38.15
2019-03-31T03:14:16.296Z,39.85
2019-03-31T03:16:50.858Z,34.70
2019-03-31T03:19:26.587Z,40.15
2019-03-31T03:22:01.215Z,41.37
2019-03-31T03:24:35.702Z,43.65
2019-03-31T03:27:10.180Z,46.73
2019-03-31T03:29:44.840Z,47.62
2019-03-31T03:32:19.498Z,45.98
2019-03-31T03:34:54.090Z,47.45
2019-03-31T03:37:28.867Z,46.77
2019-03-31T03:40:03.446Z,47.88
2019-03-31T03:42:37.723Z,47.90
2019-03-31T03:45:12.297Z,51.37
2019-03-31T03:47:46.777Z,51.37
2019-03-31T03:50:21.545Z,50.28
2019-03-31T03:52:55.862Z,51.90
2019-03-31T03:55:30.311Z,60.67
2019-03-31T03:58:05.080Z,57.17
2019-03-31T04:00:39.753Z,61.53
2019-03-31T04:03:29.237Z,52.40
2019-03-31T04:05:50.792Z,56.28
2019-03-31T04:08:25.431Z,57.15
2019-03-31T04:11:21.948Z,58.38
2019-03-31T04:13:57.203Z,56.98
2019-03-31T04:16:31.933Z,60.30
2019-03-31T04:19:06.513Z,57.30
2019-03-31T04:21:41.208Z,56.98
2019-03-31T04:24:15.696Z,61.83
2019-03-31T04:26:50.285Z,56.98
2019-03-31T04:29:24.805Z,58.65
2019-03-31T04:31:59.521Z,59.58
2019-03-31T04:34:33.870Z,61.35
2019-03-31T04:37:08.467Z,64.92
2019-03-31T04:39:42.961Z,56.60
2019-03-31T04:42:17.346Z,59.85
2019-03-31T04:44:51.975Z,58.38
2019-03-31T04:47:26.376Z,60.08
2019-03-31T04:50:00.733Z,60.23
2019-03-31T04:52:35.659Z,55.92
2019-03-31T04:55:10.096Z,60.92
2019-03-31T04:57:44.608Z,61.92
2019-03-31T05:00:20.661Z,62.48
2019-03-31T05:02:55.176Z,60.67
2019-03-31T05:05:29.616Z,62.10
2019-03-31T05:08:03.955Z,67.55
2019-03-31T05:10:38.555Z,60.03
2019-03-31T05:13:14.143Z,58.98
2019-03-31T05:15:48.926Z,59.88
2019-03-31T05:18:23.486Z,60.55
2019-03-31T05:20:57.970Z,61.42
2019-03-31T05:23:32.630Z,60.83
2019-03-31T05:26:07.575Z,60.15
2019-03-31T05:28:44.168Z,61.58
2019-03-31T05:31:18.824Z,61.77
2019-03-31T05:33:53.225Z,63.15
2019-03-31T05:36:27.772Z,60.15
2019-03-31T05:39:02.540Z,60.38
2019-03-31T05:41:37.215Z,60.35
2019-03-31T05:44:11.744Z,58.05
2019-03-31T05:46:46.162Z,60.63
2019-03-31T05:49:21.433Z,63.52
2019-03-31T05:51:56.017Z,55.78
2019-03-31T05:54:30.489Z,60.17
2019-03-31T05:57:05.071Z,70.05
2019-03-31T05:59:39.794Z,63.17
2019-03-31T06:02:14.117Z,62.15
2019-03-31T06:04:48.588Z,64.75
2019-03-31T06:07:23.222Z,62.50
2019-03-31T06:09:57.634Z,63.92
2019-03-31T06:12:32.030Z,63.25
2019-03-31T06:15:06.653Z,58.30
2019-03-31T06:17:41.155Z,59.35
2019-03-31T06:20:15.795Z,65.57
2019-03-31T06:22:50.656Z,64.45
2019-03-31T06:25:25.456Z,58.83
2019-03-31T06:27:59.929Z,60.75
2019-03-31T06:30:34.883Z,67.05
2019-03-31T06:33:10.380Z,59.50
2019-03-31T06:35:45.371Z,67.22
2019-03-31T06:38:20.824Z,63.68
2019-03-31T06:40:56.339Z,62.13
2019-03-31T06:43:31.066Z,61.68
2019-03-31T06:46:05.629Z,59.50
2019-03-31T06:48:41.625Z,63.80
2019-03-31T06:51:17.191Z,57.00
2019-03-31T06:53:52.449Z,58.65
2019-03-31T06:56:27.368Z,59.73
2019-03-31T06:59:02.270Z,62.10
2019-03-31T07:01:36.852Z,63.55
2019-03-31T07:04:11.944Z,62.50
2019-03-31T07:06:46.797Z,63.13
2019-03-31T07:09:21.304Z,55.65
2019-03-31T07:11:55.813Z,65.45
2019-03-31T07:14:30.185Z,61.13
2019-03-31T07:17:05.231Z,63.38
2019-03-31T07:19:39.610Z,64.87
2019-03-31T07:22:14.474Z,55.63
2019-03-31T07:24:49.131Z,56.10
2019-03-31T07:27:24.182Z,60.00
2019-03-31T07:29:59.163Z,59.75
2019-03-31T07:32:33.983Z,58.35
2019-03-31T07:35:18.371Z,60.10
2019-03-31T07:37:47.490Z,56.90
2019-03-31T07:40:24.154Z,56.30
2019-03-31T07:42:58.713Z,54.98
2019-03-31T07:45:33.302Z,59.27
2019-03-31T07:48:08.297Z,60.38
2019-03-31T07:50:43.246Z,56.85
2019-03-31T07:53:17.816Z,56.55
2019-03-31T07:55:52.343Z,56.45
2019-03-31T07:58:27.844Z,54.08
2019-03-31T08:01:02.495Z,53.30
2019-03-31T08:03:37.138Z,54.53
2019-03-31T08:06:11.622Z,51.58
2019-03-31T08:08:46.401Z,58.63
2019-03-31T08:11:21.127Z,53.48
2019-03-31T08:13:55.758Z,55.65
2019-03-31T08:16:30.481Z,51.35
2019-03-31T08:19:05.291Z,49.75
2019-03-31T08:21:41.389Z,53.98
2019-03-31T08:24:16.370Z,52.95
2019-03-31T08:26:52.377Z,54.73
2019-03-31T08:29:27.084Z,47.98
2019-03-31T08:32:01.569Z,47.10
2019-03-31T08:34:36.516Z,51.75
2019-03-31T08:37:11.277Z,45.38
2019-03-31T08:39:45.964Z,55.28
2019-03-31T08:42:20.377Z,50.00
2019-03-31T08:44:55.270Z,48.40
2019-03-31T08:47:30.063Z,53.30
2019-03-31T08:50:04.811Z,51.25
2019-03-31T08:52:39.838Z,131.03
2019-03-31T08:55:15.055Z,634.27
2019-03-31T08:57:49.668Z,1406.68
2019-03-31T09:00:49.335Z,558.35
2019-03-31T09:03:24.228Z,1367.68
2019-03-31T09:06:02.101Z,1247.80
2019-03-31T09:08:35.594Z,714.42
2019-03-31T09:11:10.532Z,670.83
2019-03-31T09:13:45.363Z,569.33
2019-03-31T09:16:19.819Z,507.05
2019-03-31T09:18:54.474Z,413.72
2019-03-31T09:21:29.223Z,330.87
2019-03-31T09:24:04.074Z,278.42
2019-03-31T09:26:38.796Z,266.08
2019-03-31T09:29:13.753Z,251.20
2019-03-31T09:31:48.298Z,226.35
2019-03-31T09:34:23.101Z,209.10
2019-03-31T09:36:57.885Z,189.75
2019-03-31T09:39:32.698Z,206.25
2019-03-31T09:42:07.487Z,179.27
2019-03-31T09:44:42.064Z,125.02
2019-03-31T09:47:16.411Z,158.87
2019-03-31T09:49:51.118Z,155.93
2019-03-31T09:52:25.670Z,144.17
2019-03-31T09:55:00.469Z,143.17
2019-03-31T09:57:35.114Z,117.85
2019-03-31T10:00:11.282Z,111.37
2019-03-31T10:02:45.959Z,101.70
2019-03-31T10:05:20.811Z,77.30
2019-03-31T10:07:55.587Z,64.05
2019-03-31T10:10:36.234Z,73.72
2019-03-31T10:13:10.962Z,59.63
2019-03-31T10:15:45.728Z,62.73
2019-03-31T10:18:20.795Z,58.83
2019-03-31T10:20:55.404Z,54.55
2019-03-31T10:23:30.167Z,46.10
2019-03-31T10:26:04.898Z,51.13
2019-03-31T10:28:39.417Z,49.13
2019-03-31T10:31:15.138Z,38.48
2019-03-31T10:33:49.776Z,34.67
2019-03-31T10:36:24.407Z,39.88
2019-03-31T10:38:59.084Z,34.92
2019-03-31T10:41:33.727Z,35.23
2019-03-31T10:44:08.903Z,41.70
2019-03-31T10:46:43.478Z,30.45
2019-03-31T10:49:18.108Z,30.82
2019-03-31T10:51:52.888Z,30.85
2019-03-31T10:54:27.557Z,33.85
2019-03-31T10:57:02.718Z,30.35
2019-03-31T10:59:37.868Z,29.48
2019-03-31T11:02:12.484Z,44.30
2019-03-31T11:04:47.344Z,37.05
2019-03-31T11:07:21.883Z,39.53
2019-03-31T11:09:56.826Z,37.53
2019-03-31T11:12:31.638Z,31.02
2019-03-31T11:15:06.370Z,26.23
2019-03-31T11:17:41.387Z,24.23
2019-03-31T11:20:16.307Z,25.10
2019-03-31T11:23:02.612Z,26.10
2019-03-31T11:25:37.350Z,28.47
2019-03-31T11:28:12.334Z,28.73
2019-03-31T11:30:46.926Z,28.32
2019-03-31T11:33:21.629Z,29.63
2019-03-31T11:35:56.811Z,25.32
2019-03-31T11:38:31.568Z,21.42
2019-03-31T11:41:06.618Z,24.45
2019-03-31T11:43:41.334Z,20.37
2019-03-31T11:46:16.604Z,19.45
2019-03-31T11:48:51.881Z,20.15
2019-03-31T11:51:26.661Z,19.05
2019-03-31T11:54:01.519Z,20.43
2019-03-31T11:56:35.822Z,18.48
2019-03-31T11:59:10.458Z,18.17
2019-03-31T12:01:45.162Z,23.18
2019-03-31T12:04:19.849Z,19.90
2019-03-31T12:06:54.470Z,22.70
2019-03-31T12:09:29.193Z,27.60
2019-03-31T12:12:03.754Z,18.32
2019-03-31T12:14:38.241Z,17.32
2019-03-31T12:17:12.666Z,15.48
2019-03-31T12:19:49.196Z,15.63
2019-03-31T12:22:23.785Z,15.90
2019-03-31T12:24:58.205Z,17.82
2019-03-31T12:27:33.048Z,15.98
2019-03-31T12:30:10.887Z,16.67
2019-03-31T12:32:45.291Z,17.70
2019-03-31T12:35:19.709Z,20.12
2019-03-31T12:37:54.214Z,14.75
2019-03-31T12:40:36.233Z,22.02
2019-03-31T12:43:10.637Z,15.18
2019-03-31T12:45:45.214Z,17.67
2019-03-31T12:48:19.975Z,17.75
2019-03-31T12:50:54.591Z,13.25
2019-03-31T12:53:29.340Z,13.80
2019-03-31T12:56:04.153Z,13.55
2019-03-31T12:58:39.000Z,16.32
2019-03-31T13:01:13.690Z,12.75
2019-03-31T13:03:49.298Z,13.48
2019-03-31T13:06:23.984Z,15.50
2019-03-31T13:08:58.761Z,14.13
2019-03-31T13:11:33.397Z,13.43
2019-03-31T13:14:08.017Z,14.50
2019-03-31T13:16:42.846Z,11.30
2019-03-31T13:19:17.472Z,12.43
2019-03-31T13:21:52.077Z,12.07
2019-03-31T13:24:26.569Z,12.98
2019-03-31T13:27:01.376Z,12.05
2019-03-31T13:29:38.374Z,12.70
2019-03-31T13:32:12.460Z,13.60
2019-03-31T13:34:47.286Z,21.85
2019-03-31T13:37:21.992Z,18.40
2019-03-31T13:39:56.992Z,21.35
2019-03-31T13:42:31.709Z,32.48
2019-03-31T13:45:06.578Z,24.75
2019-03-31T13:47:41.070Z,30.08
2019-03-31T13:50:16.238Z,27.95
2019-03-31T13:52:51.163Z,43.42
2019-03-31T13:55:25.679Z,23.12
2019-03-31T13:58:02.672Z,25.23
2019-03-31T14:00:41.943Z,25.02
2019-03-31T14:03:16.841Z,28.05
2019-03-31T14:05:51.865Z,26.57
2019-03-31T14:08:26.439Z,27.82
2019-03-31T14:11:01.273Z,38.63
2019-03-31T14:13:36.832Z,39.03
2019-03-31T14:16:11.587Z,52.80
2019-03-31T14:18:46.131Z,54.75
2019-03-31T14:21:20.739Z,70.22
2019-03-31T14:23:55.246Z,57.45
2019-03-31T14:26:29.558Z,55.63
2019-03-31T14:29:04.543Z,58.55
2019-03-31T14:31:39.256Z,60.52
2019-03-31T14:34:14.022Z,52.75
2019-03-31T14:36:48.615Z,42.10
2019-03-31T14:39:24.437Z,77.72
2019-03-31T14:41:59.194Z,90.92
2019-03-31T14:44:33.812Z,81.25
2019-03-31T14:47:08.630Z,82.50
2019-03-31T14:49:43.703Z,80.90
2019-03-31T14:52:27.193Z,74.27
2019-03-31T14:54:55.941Z,61.10
2019-03-31T14:57:30.687Z,65.78
2019-03-31T15:00:14.767Z,58.65
2019-03-31T15:02:41.294Z,65.30
2019-03-31T15:05:15.679Z,59.48
2019-03-31T15:07:50.299Z,49.15
2019-03-31T15:10:24.663Z,47.67
2019-03-31T15:12:59.093Z,44.50
2019-03-31T15:15:33.840Z,51.68
2019-03-31T15:18:08.836Z,45.78
2019-03-31T15:20:44.327Z,49.65
2019-03-31T15:23:19.228Z,44.80
2019-03-31T15:25:54.156Z,37.83
2019-03-31T15:28:28.749Z,36.80
2019-03-31T15:31:03.224Z,34.83
2019-03-31T15:33:38.214Z,39.55
2019-03-31T15:36:12.906Z,36.53
2019-03-31T15:38:47.367Z,28.30
2019-03-31T15:41:22.029Z,31.97
2019-03-31T15:43:56.646Z,29.48
2019-03-31T15:46:31.237Z,34.73
2019-03-31T15:49:06.086Z,28.00
2019-03-31T15:51:41.843Z,32.15
2019-03-31T15:54:17.078Z,34.13
2019-03-31T15:56:51.649Z,30.15
2019-03-31T15:59:26.440Z,27.75
2019-03-31T16:02:01.171Z,37.48
2019-03-31T16:04:35.633Z,37.98
2019-03-31T16:07:10.181Z,50.12
2019-03-31T16:09:44.525Z,36.05
2019-03-31T16:12:18.552Z,40.52
2019-03-31T16:14:52.701Z,37.73
2019-03-31T16:17:26.994Z,29.77
2019-03-31T16:20:01.177Z,36.98
2019-03-31T16:22:36.584Z,32.58
2019-03-31T16:25:17.833Z,33.65
2019-03-31T16:27:51.871Z,29.15
2019-03-31T16:30:26.747Z,31.40
2019-03-31T16:33:00.730Z,26.55
2019-03-31T16:35:34.982Z,25.60
2019-03-31T16:38:09.183Z,28.87
2019-03-31T16:40:43.560Z,29.18
2019-03-31T16:43:18.610Z,32.45
2019-03-31T16:45:54.026Z,28.15
2019-03-31T16:48:28.160Z,28.27
2019-03-31T16:51:02.231Z,25.62
2019-03-31T16:53:37.246Z,27.55
2019-03-31T16:56:11.537Z,30.50
2019-03-31T16:58:46.192Z,37.58
2019-03-31T17:01:20.577Z,32.03
2019-03-31T17:03:54.853Z,29.50
2019-03-31T17:06:29.074Z,31.93
2019-03-31T17:09:03.183Z,31.45
2019-03-31T17:11:37.932Z,30.55
2019-03-31T17:14:12.044Z,33.75
2019-03-31T17:16:46.282Z,33.10
2019-03-31T17:19:20.325Z,32.40
2019-03-31T17:21:54.253Z,46.30
2019-03-31T17:24:28.040Z,33.02
2019-03-31T17:27:01.855Z,49.33
2019-03-31T17:29:36.020Z,36.42
2019-03-31T17:32:10.617Z,37.48
2019-03-31T17:34:44.805Z,29.32
2019-03-31T17:37:19.154Z,32.08
2019-03-31T17:40:05.321Z,28.95
2019-03-31T17:42:29.244Z,27.80
2019-03-31T17:45:03.469Z,39.88
2019-03-31T17:47:37.890Z,26.27
2019-03-31T17:50:12.512Z,30.85
2019-03-31T17:52:46.937Z,26.90
2019-03-31T17:55:21.234Z,20.37
2019-03-31T17:57:55.378Z,23.73
2019-03-31T18:00:29.509Z,23.57
2019-03-31T18:03:03.850Z,21.20
2019-03-31T18:05:38.253Z,24.05
2019-03-31T18:08:12.613Z,20.77
2019-03-31T18:10:46.529Z,26.48
2019-03-31T18:13:21.507Z,23.15
2019-03-31T18:15:56.081Z,19.85
2019-03-31T18:18:30.146Z,19.77
2019-03-31T18:21:04.214Z,20.43
2019-03-31T18:23:38.308Z,18.30
2019-03-31T18:26:12.539Z,19.80
2019-03-31T18:28:46.668Z,25.68
2019-03-31T18:31:20.836Z,21.17
2019-03-31T18:33:54.784Z,22.48
2019-03-31T18:36:36.598Z,22.90
2019-03-31T18:39:07.850Z,18.98
2019-03-31T18:41:42.316Z,20.08
2019-03-31T18:44:16.312Z,18.90
2019-03-31T18:46:50.323Z,21.20
2019-03-31T18:49:24.478Z,22.13
2019-03-31T18:51:58.459Z,20.23
2019-03-31T18:54:38.090Z,17.95
2019-03-31T18:57:29.237Z,21.42
2019-03-31T19:00:12.611Z,20.80
2019-03-31T19:03:23.990Z,17.25
2019-03-31T19:06:16.590Z,16.55
2019-03-31T19:09:00.154Z,17.02
2019-03-31T19:11:52.883Z,21.23
2019-03-31T19:14:36.122Z,16.75
2019-03-31T19:17:35.303Z,18.20
2019-03-31T19:20:31.433Z,23.05
2019-03-31T19:23:20.979Z,22.82
2019-03-31T19:26:31.875Z,30.75
2019-03-31T19:29:27.391Z,23.02
2019-03-31T19:32:16.472Z,19.77
2019-03-31T19:35:02.839Z,19.48
2019-03-31T19:37:54.180Z,20.50
2019-03-31T19:40:46.289Z,24.70
2019-03-31T19:43:27.047Z,18.15
2019-03-31T19:46:26.681Z,19.57
2019-03-31T19:49:25.682Z,20.70
2019-03-31T19:52:34.065Z,32.65
2019-03-31T19:55:26.081Z,24.15
2019-03-31T19:58:19.543Z,22.73
2019-03-31T20:01:17.153Z,22.62
2019-03-31T20:04:04.491Z,21.25
2019-03-31T20:07:00.799Z,23.10
2019-03-31T20:10:06.374Z,19.77
2019-03-31T20:12:51.866Z,18.77
2019-03-31T20:16:02.665Z,20.85
2019-03-31T20:18:54.556Z,19.55
2019-03-31T20:21:44.390Z,17.60
2019-03-31T20:24:46.590Z,19.00
2019-03-31T20:27:48.098Z,18.02
2019-03-31T20:30:44.174Z,20.15
2019-03-31T20:33:35.804Z,17.05
2019-03-31T20:36:35.000Z,19.12
2019-03-31T20:39:33.402Z,22.40
2019-03-31T20:42:26.646Z,17.40
2019-03-31T20:45:01.230Z,22.48
2019-03-31T20:47:35.813Z,20.00
2019-03-31T20:50:11.402Z,18.92
2019-03-31T20:52:45.781Z,19.00
2019-03-31T20:55:20.014Z,20.17
2019-03-31T20:57:54.328Z,21.55
2019-03-31T21:00:29.214Z,21.05
2019-03-31T21:03:04.141Z,16.95
2019-03-31T21:05:38.577Z,20.23
2019-03-31T21:08:13.095Z,18.45
2019-03-31T21:10:47.903Z,21.37
2019-03-31T21:13:22.287Z,17.87
2019-03-31T21:15:56.984Z,22.55
2019-03-31T21:18:32.082Z,16.52
2019-03-31T21:21:06.591Z,16.65
2019-03-31T21:23:40.917Z,19.35
2019-03-31T21:26:15.395Z,18.73
2019-03-31T21:28:49.915Z,19.42
2019-03-31T21:31:24.249Z,18.17
2019-03-31T21:33:59.082Z,20.00
2019-03-31T21:36:33.758Z,21.37
2019-03-31T21:39:10.100Z,19.20
2019-03-31T21:41:44.819Z,19.05
2019-03-31T21:44:19.180Z,19.65
2019-03-31T21:46:55.944Z,18.02
2019-03-31T21:49:29.590Z,20.12
2019-03-31T21:52:04.300Z,21.60
2019-03-31T21:54:39.248Z,17.48
2019-03-31T21:57:13.572Z,16.95
2019-03-31T21:59:48.107Z,18.55
2019-03-31T22:02:22.873Z,19.87
2019-03-31T22:04:58.358Z,18.32
2019-03-31T22:07:32.673Z,20.80
2019-03-31T22:10:07.245Z,19.77
2019-03-31T22:12:41.422Z,20.65
2019-03-31T22:15:16.242Z,17.00
2019-03-31T22:17:50.786Z,19.62
2019-03-31T22:20:25.286Z,18.95
2019-03-31T22:23:00.089Z,21.10
2019-03-31T22:25:34.805Z,22.60
2019-03-31T22:28:09.530Z,20.85
2019-03-31T22:30:44.146Z,21.23
2019-03-31T22:33:18.823Z,18.37
2019-03-31T22:36:10.380Z,24.10
2019-03-31T22:38:45.029Z,21.17
2019-03-31T22:41:19.510Z,19.10
2019-03-31T22:43:54.267Z,18.35
2019-03-31T22:46:28.837Z,20.40
2019-03-31T22:49:03.355Z,19.80
2019-03-31T22:51:39.033Z,20.90
2019-03-31T22:54:13.739Z,22.25
2019-03-31T22:56:48.014Z,17.02
2019-03-31T22:59:23.518Z,17.92
2019-03-31T23:01:59.703Z,19.87
2019-03-31T23:04:34.346Z,17.45
2019-03-31T23:07:08.576Z,17.55
2019-03-31T23:09:43.017Z,17.10
2019-03-31T23:12:17.723Z,18.90
2019-03-31T23:14:52.471Z,19.37
2019-03-31T23:17:27.170Z,19.10
2019-03-31T23:20:01.576Z,16.48
2019-03-31T23:22:36.186Z,15.53
2019-03-31T23:25:11.141Z,16.85
2019-03-31T23:27:45.423Z,15.85
2019-03-31T23:30:19.463Z,18.07
2019-03-31T23:32:53.704Z,22.55
2019-03-31T23:35:27.846Z,18.37
2019-03-31T23:38:01.948Z,16.95
2019-03-31T23:40:36.284Z,15.90
2019-03-31T23:43:10.505Z,15.70
2019-03-31T23:45:44.636Z,17.77
2019-03-31T23:48:18.629Z,20.12
2019-03-31T23:50:53.181Z,16.85
2019-03-31T23:53:27.186Z,15.95
2019-03-31T23:56:01.578Z,15.60
2019-03-31T23:58:35.689Z,17.02
